Minneapolis, Minnesota
Current Conditions -  °F | °C
As of 1:53 PM on Thursday 23 Oct 2014 (Local Time) from KMSP Reporting Station
Clear Clear  
Wind Chill: 64°   Ceiling: Unl
Heat Index: 64°   Visibility: 10mi
Dew Point: 51°   Wind: 5mph
Humidity: 63%   Direction: 200°SSW
Pressure: 29.97"   Gusts: NA
Location:  44.98°N, 93.26°W
Report Text: KMSP 231853Z 20004KT 10SM CLR 18/11 A2997 RMK AO2 SLP149 T01780106
Loading
Personal Weather Stations






























Interactive Weather Map
Tropical Storm Tracking
New forecast layout! Learn more

10-Day Weather Forecast

Advertisements
Track Severe Weather on mobile